Time;durP1;ratioP1;P1;durP2;ratioP2;P2;SDS_P1;SDS_P2;PMS_P1;PMS_P2;Temp;Humidity;BMP_temperature;BMP_pressure;BME280_temperature;BME280_humidity;BME280_pressure;Samples;Min_cycle;Max_cycle;Signal;HPM_P1;HPM_P2
2021/12/27 00:02:15;;;;;;;3.80;2.13;;;;;;;;;;5006588;28;20225;-60
2021/12/27 00:04:44;;;;;;;4.30;2.80;;;;;;;;;;5004995;28;20212;-59
2021/12/27 00:07:11;;;;;;;4.10;2.63;;;;;;;;;;5006339;28;20681;-59
2021/12/27 00:09:39;;;;;;;4.50;2.90;;;;;;;;;;5005602;28;20216;-59
2021/12/27 00:12:06;;;;;;;3.37;2.63;;;;;;;;;;5003776;28;20205;-60
2021/12/27 00:14:34;;;;;;;2.87;2.37;;;;;;;;;;5000276;28;20205;-60
2021/12/27 00:17:01;;;;;;;3.97;2.77;;;;;;;;;;4999929;28;20216;-60
2021/12/27 00:19:28;;;;;;;5.30;3.13;;;;;;;;;;4991925;28;20224;-60
2021/12/27 00:21:56;;;;;;;3.37;2.57;;;;;;;;;;5001661;28;20882;-60
2021/12/27 00:24:23;;;;;;;2.20;2.10;;;;;;;;;;4996226;28;20220;-59
2021/12/27 00:26:52;;;;;;;8.10;3.13;;;;;;;;;;5004197;28;20216;-60
2021/12/27 00:29:19;;;;;;;7.00;2.73;;;;;;;;;;4995319;28;20231;-59
2021/12/27 00:31:46;;;;;;;3.57;2.33;;;;;;;;;;5000591;28;20212;-60
2021/12/27 00:34:13;;;;;;;5.67;2.97;;;;;;;;;;4998352;28;20213;-59
2021/12/27 00:36:40;;;;;;;4.90;2.93;;;;;;;;;;5000818;28;20309;-59
2021/12/27 00:39:09;;;;;;;4.47;3.20;;;;;;;;;;4997703;28;20212;-59
2021/12/27 00:41:36;;;;;;;5.30;2.97;;;;;;;;;;4997500;28;20234;-59
2021/12/27 00:44:03;;;;;;;6.37;3.27;;;;;;;;;;4999371;28;20212;-59
2021/12/27 00:46:30;;;;;;;7.50;3.47;;;;;;;;;;4999603;28;20210;-60
2021/12/27 00:48:57;;;;;;;3.70;2.87;;;;;;;;;;4998828;28;20217;-59
2021/12/27 00:51:25;;;;;;;4.43;2.63;;;;;;;;;;4999247;28;20235;-59
2021/12/27 00:53:52;;;;;;;4.77;3.10;;;;;;;;;;5000948;28;20216;-59
2021/12/27 00:56:20;;;;;;;5.87;3.60;;;;;;;;;;5000202;28;20201;-60
2021/12/27 00:58:48;;;;;;;5.00;3.53;;;;;;;;;;5000235;28;20210;-59
2021/12/27 01:01:15;;;;;;;7.07;2.50;;;;;;;;;;5000995;28;20233;-59
2021/12/27 01:03:42;;;;;;;3.33;2.63;;;;;;;;;;4999472;28;20287;-60
2021/12/27 01:06:09;;;;;;;3.27;2.93;;;;;;;;;;4999190;28;20258;-59
2021/12/27 01:08:37;;;;;;;6.13;2.73;;;;;;;;;;4999467;28;20261;-59
2021/12/27 01:11:24;;;;;;;9.43;3.63;;;;;;;;;;5000357;28;20201;-59
2021/12/27 01:14:03;;;;;;;6.03;2.60;;;;;;;;;;4998498;28;20240;-60
2021/12/27 01:16:30;;;;;;;3.07;2.83;;;;;;;;;;4999666;28;20255;-59
2021/12/27 01:18:58;;;;;;;10.67;3.90;;;;;;;;;;4999985;28;20564;-59
2021/12/27 01:21:26;;;;;;;3.40;3.10;;;;;;;;;;4999765;28;20275;-59
2021/12/27 01:23:53;;;;;;;7.13;3.07;;;;;;;;;;4998135;28;20201;-59
2021/12/27 01:26:21;;;;;;;10.83;3.23;;;;;;;;;;4998134;28;20204;-59
2021/12/27 01:28:49;;;;;;;8.93;3.03;;;;;;;;;;4999846;28;20209;-59
2021/12/27 01:31:17;;;;;;;6.37;2.90;;;;;;;;;;4996610;28;20220;-59
2021/12/27 01:33:46;;;;;;;4.60;3.30;;;;;;;;;;4999856;28;20585;-59
2021/12/27 01:36:14;;;;;;;3.77;2.90;;;;;;;;;;4999149;28;20636;-59
2021/12/27 01:38:41;;;;;;;8.97;3.50;;;;;;;;;;4995718;28;20201;-59
2021/12/27 01:41:09;;;;;;;4.70;2.73;;;;;;;;;;4998595;28;20711;-59
2021/12/27 01:43:37;;;;;;;1.70;1.60;;;;;;;;;;4998757;28;20208;-59
2021/12/27 01:46:06;;;;;;;4.90;2.83;;;;;;;;;;4998428;28;20216;-59
2021/12/27 01:48:37;;;;;;;5.73;3.70;;;;;;;;;;4995775;28;20212;-59
2021/12/27 01:51:06;;;;;;;6.40;2.87;;;;;;;;;;4996368;28;20251;-59
2021/12/27 01:53:33;;;;;;;6.37;3.40;;;;;;;;;;4998015;28;20240;-59
2021/12/27 01:56:01;;;;;;;6.63;3.43;;;;;;;;;;4997147;28;20208;-59
2021/12/27 01:58:29;;;;;;;3.20;2.53;;;;;;;;;;4998935;28;20204;-59
2021/12/27 02:00:56;;;;;;;6.87;3.47;;;;;;;;;;4998870;28;20209;-59
2021/12/27 02:03:25;;;;;;;5.10;3.23;;;;;;;;;;4999176;28;20206;-59
2021/12/27 02:05:53;;;;;;;4.43;2.73;;;;;;;;;;4998144;28;20213;-59
2021/12/27 02:08:21;;;;;;;8.30;3.57;;;;;;;;;;4998959;28;20228;-59
2021/12/27 02:10:49;;;;;;;7.33;3.10;;;;;;;;;;4997502;28;20613;-59
2021/12/27 02:13:16;;;;;;;4.33;3.67;;;;;;;;;;4998983;28;20220;-59
2021/12/27 02:15:56;;;;;;;5.03;2.83;;;;;;;;;;4999331;28;20663;-60
2021/12/27 02:18:23;;;;;;;6.80;3.17;;;;;;;;;;4999954;28;20240;-59
2021/12/27 02:20:52;;;;;;;5.10;3.00;;;;;;;;;;4998234;28;20249;-59
2021/12/27 02:23:19;;;;;;;3.07;2.67;;;;;;;;;;5001972;28;20232;-59
2021/12/27 02:25:48;;;;;;;5.60;3.50;;;;;;;;;;5003729;28;20209;-59
2021/12/27 02:28:15;;;;;;;4.77;3.27;;;;;;;;;;5000884;28;20205;-59
2021/12/27 02:30:44;;;;;;;4.70;3.70;;;;;;;;;;5004761;28;20940;-58
2021/12/27 02:33:12;;;;;;;6.13;3.40;;;;;;;;;;5003085;28;20653;-59
2021/12/27 02:35:40;;;;;;;8.43;3.73;;;;;;;;;;5003381;28;20206;-59
2021/12/27 02:38:10;;;;;;;6.60;3.77;;;;;;;;;;5001028;28;20237;-59
2021/12/27 02:40:38;;;;;;;4.37;3.03;;;;;;;;;;5002943;28;20243;-59
2021/12/27 02:43:06;;;;;;;6.90;3.43;;;;;;;;;;5001276;28;20928;-59
2021/12/27 02:45:35;;;;;;;3.70;2.07;;;;;;;;;;5003185;28;20205;-59
2021/12/27 02:48:02;;;;;;;5.07;2.77;;;;;;;;;;5003967;28;20209;-59
2021/12/27 02:50:31;;;;;;;6.57;3.03;;;;;;;;;;5004440;28;20279;-59
2021/12/27 02:52:58;;;;;;;3.97;2.67;;;;;;;;;;5003662;28;20216;-59
2021/12/27 02:55:27;;;;;;;5.20;3.10;;;;;;;;;;5002149;28;20212;-59
2021/12/27 02:57:54;;;;;;;4.10;3.20;;;;;;;;;;4999886;28;20213;-59
2021/12/27 03:00:22;;;;;;;8.53;3.97;;;;;;;;;;5000974;28;20205;-59
2021/12/27 03:02:50;;;;;;;4.47;3.57;;;;;;;;;;5003200;28;20312;-59
2021/12/27 03:05:18;;;;;;;5.67;3.27;;;;;;;;;;5002960;28;20200;-59
2021/12/27 03:07:46;;;;;;;7.87;2.87;;;;;;;;;;5002245;28;20212;-59
2021/12/27 03:10:15;;;;;;;7.37;3.47;;;;;;;;;;5001120;28;20213;-59
2021/12/27 03:12:45;;;;;;;3.80;3.03;;;;;;;;;;5003689;28;20208;-59
2021/12/27 03:15:13;;;;;;;4.60;3.53;;;;;;;;;;5001972;28;20206;-58
2021/12/27 03:17:40;;;;;;;6.23;3.40;;;;;;;;;;5000660;28;20204;-59
2021/12/27 03:20:08;;;;;;;12.40;3.70;;;;;;;;;;5001381;28;20205;-59
2021/12/27 03:22:37;;;;;;;6.93;3.63;;;;;;;;;;4997994;28;20238;-59
2021/12/27 03:25:05;;;;;;;3.90;2.40;;;;;;;;;;5006707;28;20735;-59
2021/12/27 03:27:32;;;;;;;4.93;2.73;;;;;;;;;;5010773;28;20208;-60
2021/12/27 03:30:01;;;;;;;5.43;2.73;;;;;;;;;;5011349;28;20216;-59
2021/12/27 03:32:30;;;;;;;6.20;3.80;;;;;;;;;;5010813;28;20204;-59
2021/12/27 03:35:07;;;;;;;8.43;3.10;;;;;;;;;;5009560;28;20202;-60
2021/12/27 03:37:34;;;;;;;6.33;3.80;;;;;;;;;;5010788;28;20826;-59
2021/12/27 03:40:01;;;;;;;7.20;4.00;;;;;;;;;;5010385;28;20217;-60
2021/12/27 03:42:29;;;;;;;8.73;3.87;;;;;;;;;;5010817;28;20699;-59
2021/12/27 03:44:56;;;;;;;5.03;2.93;;;;;;;;;;5011041;28;20216;-60
2021/12/27 03:47:24;;;;;;;6.37;3.40;;;;;;;;;;5011172;28;20213;-59
2021/12/27 03:49:51;;;;;;;7.00;3.43;;;;;;;;;;5010201;28;20596;-59
2021/12/27 03:52:18;;;;;;;9.10;3.60;;;;;;;;;;5010781;28;20201;-60
2021/12/27 03:54:45;;;;;;;4.13;2.53;;;;;;;;;;5010316;28;20687;-59
2021/12/27 03:57:14;;;;;;;8.53;4.20;;;;;;;;;;5010663;28;20200;-60
2021/12/27 03:59:53;;;;;;;5.83;3.23;;;;;;;;;;5010004;28;20243;-59
2021/12/27 04:02:20;;;;;;;7.70;3.57;;;;;;;;;;5010759;28;20228;-59
2021/12/27 04:04:48;;;;;;;11.13;4.20;;;;;;;;;;5010687;28;20216;-59
2021/12/27 04:07:16;;;;;;;4.33;2.90;;;;;;;;;;5010429;28;20219;-59
2021/12/27 04:12:24;;;;;;;4.47;3.53;;;;;;;;;;5003584;28;20207;-59
2021/12/27 04:14:51;;;;;;;10.00;4.23;;;;;;;;;;5002253;28;20243;-59
2021/12/27 04:17:18;;;;;;;6.33;2.90;;;;;;;;;;4994250;28;20684;-59
2021/12/27 04:19:45;;;;;;;8.80;3.93;;;;;;;;;;5005482;28;20212;-59
2021/12/27 04:22:13;;;;;;;6.07;3.40;;;;;;;;;;5008720;28;20240;-60
2021/12/27 04:24:40;;;;;;;7.23;3.60;;;;;;;;;;5010008;28;21956;-59
2021/12/27 04:27:07;;;;;;;13.07;4.03;;;;;;;;;;4998591;28;20217;-59
2021/12/27 04:29:34;;;;;;;9.23;4.37;;;;;;;;;;4999385;28;20213;-59
2021/12/27 04:32:01;;;;;;;13.07;4.03;;;;;;;;;;5000643;28;20550;-59
2021/12/27 04:34:28;;;;;;;9.83;4.20;;;;;;;;;;5002293;28;20213;-59
2021/12/27 04:36:55;;;;;;;7.30;4.13;;;;;;;;;;4998470;28;20206;-59
2021/12/27 04:39:24;;;;;;;9.77;4.43;;;;;;;;;;4999441;28;20206;-60
2021/12/27 04:41:51;;;;;;;6.77;3.40;;;;;;;;;;4999135;28;20214;-59
2021/12/27 04:44:18;;;;;;;8.17;3.37;;;;;;;;;;4997363;28;20213;-59
2021/12/27 04:46:45;;;;;;;7.33;3.53;;;;;;;;;;4999522;28;20675;-59
2021/12/27 04:49:12;;;;;;;8.93;3.40;;;;;;;;;;5003787;28;20201;-59
2021/12/27 04:51:39;;;;;;;5.70;3.30;;;;;;;;;;5009243;28;20242;-59
2021/12/27 04:54:07;;;;;;;5.00;3.07;;;;;;;;;;5010066;28;20209;-59
2021/12/27 04:56:35;;;;;;;7.77;3.40;;;;;;;;;;5001366;28;20264;-59
2021/12/27 04:59:02;;;;;;;3.47;3.00;;;;;;;;;;5006011;28;20694;-59
2021/12/27 05:01:29;;;;;;;4.13;3.03;;;;;;;;;;5009844;28;20205;-59
2021/12/27 05:03:56;;;;;;;4.70;2.87;;;;;;;;;;5008278;28;20245;-58
2021/12/27 05:06:23;;;;;;;6.67;3.47;;;;;;;;;;5008786;28;20209;-59
2021/12/27 05:08:53;;;;;;;6.97;2.43;;;;;;;;;;5007677;28;20706;-59
2021/12/27 05:11:20;;;;;;;8.63;3.63;;;;;;;;;;5008530;28;20506;-59
2021/12/27 05:13:49;;;;;;;10.03;3.43;;;;;;;;;;5008868;28;20216;-59
2021/12/27 05:16:16;;;;;;;6.67;3.07;;;;;;;;;;5007718;28;20215;-59
2021/12/27 05:18:43;;;;;;;4.70;2.97;;;;;;;;;;5007625;28;20209;-59
2021/12/27 05:21:10;;;;;;;6.20;3.50;;;;;;;;;;5008205;28;20208;-59
2021/12/27 05:23:37;;;;;;;7.70;3.50;;;;;;;;;;5004162;28;20228;-59
2021/12/27 05:26:04;;;;;;;4.60;3.07;;;;;;;;;;5008219;28;21011;-59
2021/12/27 05:28:31;;;;;;;6.30;2.50;;;;;;;;;;5007407;28;20672;-59
2021/12/27 05:30:59;;;;;;;2.60;2.40;;;;;;;;;;5003811;28;20690;-59
2021/12/27 05:33:26;;;;;;;3.80;3.00;;;;;;;;;;5008051;28;20227;-59
2021/12/27 05:35:53;;;;;;;4.67;3.50;;;;;;;;;;5002136;28;20236;-59
2021/12/27 05:38:20;;;;;;;3.57;1.47;;;;;;;;;;5005076;28;20731;-59
2021/12/27 05:40:47;;;;;;;2.27;1.93;;;;;;;;;;4990033;28;20209;-59
2021/12/27 05:43:14;;;;;;;5.17;3.07;;;;;;;;;;5000020;28;20235;-59
2021/12/27 05:45:41;;;;;;;4.10;3.10;;;;;;;;;;5009087;28;20205;-59
2021/12/27 05:48:10;;;;;;;4.97;3.33;;;;;;;;;;5008771;28;20671;-59
2021/12/27 05:50:37;;;;;;;2.93;2.63;;;;;;;;;;5005327;28;20638;-59
2021/12/27 05:53:04;;;;;;;9.87;3.40;;;;;;;;;;5009039;28;20232;-59
2021/12/27 05:55:32;;;;;;;5.20;3.03;;;;;;;;;;5008358;28;20209;-59
2021/12/27 05:57:59;;;;;;;5.97;3.43;;;;;;;;;;5012746;28;20888;-59
2021/12/27 06:00:26;;;;;;;6.77;2.97;;;;;;;;;;5009338;28;20205;-59
2021/12/27 06:02:54;;;;;;;5.97;3.13;;;;;;;;;;5005255;28;20232;-59
2021/12/27 06:05:23;;;;;;;6.07;3.30;;;;;;;;;;5011853;28;20205;-59
2021/12/27 06:07:50;;;;;;;4.17;3.10;;;;;;;;;;5012985;28;20200;-60
2021/12/27 06:10:18;;;;;;;4.70;3.47;;;;;;;;;;5009875;28;20212;-59
2021/12/27 06:12:45;;;;;;;5.53;3.23;;;;;;;;;;5012511;28;20200;-59
2021/12/27 06:15:13;;;;;;;7.20;2.87;;;;;;;;;;5011715;28;20204;-59
2021/12/27 06:17:42;;;;;;;4.57;2.60;;;;;;;;;;5011193;28;20427;-59
2021/12/27 06:20:10;;;;;;;5.27;3.33;;;;;;;;;;5012048;28;20205;-60
2021/12/27 06:22:39;;;;;;;6.17;2.97;;;;;;;;;;5009889;28;20225;-59
2021/12/27 06:25:07;;;;;;;2.67;2.37;;;;;;;;;;5009017;28;21001;-59
2021/12/27 06:27:34;;;;;;;8.13;3.17;;;;;;;;;;5012245;28;20616;-59
2021/12/27 06:30:02;;;;;;;6.73;3.40;;;;;;;;;;5006633;28;20209;-59
2021/12/27 06:32:29;;;;;;;7.30;3.13;;;;;;;;;;5012418;28;20205;-60
2021/12/27 06:34:56;;;;;;;6.07;3.37;;;;;;;;;;5010098;28;20271;-59
2021/12/27 06:37:23;;;;;;;7.20;3.33;;;;;;;;;;5012631;28;20208;-59
2021/12/27 06:39:51;;;;;;;4.27;2.73;;;;;;;;;;5010151;28;20333;-59
2021/12/27 06:42:18;;;;;;;6.77;3.53;;;;;;;;;;4997947;28;20208;-59
2021/12/27 06:44:45;;;;;;;6.90;3.20;;;;;;;;;;4995200;28;20575;-60
2021/12/27 06:47:12;;;;;;;5.17;3.27;;;;;;;;;;5005769;28;20221;-60
2021/12/27 06:49:41;;;;;;;4.30;2.80;;;;;;;;;;5003742;28;20225;-59
2021/12/27 06:52:08;;;;;;;6.20;3.17;;;;;;;;;;4998153;28;20689;-59
2021/12/27 06:54:35;;;;;;;7.63;3.50;;;;;;;;;;5009910;28;20209;-60
2021/12/27 06:57:04;;;;;;;4.53;3.67;;;;;;;;;;5011555;28;20209;-59
2021/12/27 06:59:31;;;;;;;6.47;3.77;;;;;;;;;;5004859;28;20213;-59
2021/12/27 07:01:58;;;;;;;3.37;2.77;;;;;;;;;;5010281;28;20213;-59
2021/12/27 07:04:26;;;;;;;5.47;3.30;;;;;;;;;;4994383;28;20232;-60
2021/12/27 07:06:53;;;;;;;3.67;3.27;;;;;;;;;;5007120;28;20209;-59
2021/12/27 07:09:21;;;;;;;9.23;4.10;;;;;;;;;;5004711;28;20214;-59
2021/12/27 07:11:48;;;;;;;7.77;3.73;;;;;;;;;;5011780;28;20814;-59
2021/12/27 07:14:17;;;;;;;7.47;3.53;;;;;;;;;;5011193;28;20213;-60
2021/12/27 07:16:44;;;;;;;12.37;4.90;;;;;;;;;;5010588;28;20214;-60
2021/12/27 07:19:11;;;;;;;6.50;2.87;;;;;;;;;;5009747;28;20267;-60
2021/12/27 07:21:38;;;;;;;8.50;4.60;;;;;;;;;;5011379;28;20283;-59
2021/12/27 07:24:06;;;;;;;6.13;2.97;;;;;;;;;;5004938;28;20242;-59
2021/12/27 07:26:33;;;;;;;6.63;3.73;;;;;;;;;;5010621;28;20221;-60
2021/12/27 07:29:00;;;;;;;15.23;6.47;;;;;;;;;;5011034;28;20216;-59
2021/12/27 07:31:28;;;;;;;12.43;6.13;;;;;;;;;;5005705;28;20690;-59
2021/12/27 07:33:55;;;;;;;10.73;5.27;;;;;;;;;;4995020;28;20201;-59
2021/12/27 07:36:22;;;;;;;14.17;6.00;;;;;;;;;;5010419;28;20216;-59
2021/12/27 07:38:49;;;;;;;7.20;4.50;;;;;;;;;;5011149;28;20654;-59
2021/12/27 07:41:16;;;;;;;4.07;2.90;;;;;;;;;;5009942;28;20671;-59
2021/12/27 07:43:43;;;;;;;9.53;4.47;;;;;;;;;;5011166;28;20225;-59
2021/12/27 07:46:10;;;;;;;12.43;4.80;;;;;;;;;;5010811;28;20213;-60
2021/12/27 07:48:39;;;;;;;9.30;4.70;;;;;;;;;;5010246;28;20201;-60
2021/12/27 07:51:06;;;;;;;14.57;5.20;;;;;;;;;;5009875;28;20267;-59
2021/12/27 07:53:34;;;;;;;14.43;4.93;;;;;;;;;;5006772;28;20205;-60
2021/12/27 07:56:01;;;;;;;10.80;4.73;;;;;;;;;;4997531;28;20219;-59
2021/12/27 07:58:28;;;;;;;13.17;4.30;;;;;;;;;;5010664;28;20220;-59
2021/12/27 08:00:55;;;;;;;18.33;5.60;;;;;;;;;;5009762;28;20265;-59
2021/12/27 08:03:42;;;;;;;13.63;4.67;;;;;;;;;;5010318;28;20225;-60
2021/12/27 08:06:09;;;;;;;11.77;4.20;;;;;;;;;;5006940;28;20208;-59
2021/12/27 08:08:36;;;;;;;10.00;3.97;;;;;;;;;;5010573;28;20686;-60
2021/12/27 08:11:03;;;;;;;9.10;5.10;;;;;;;;;;5009445;28;20582;-60
2021/12/27 08:13:30;;;;;;;12.53;5.30;;;;;;;;;;4999601;28;20210;-59
2021/12/27 08:15:57;;;;;;;17.57;6.47;;;;;;;;;;5007649;28;20209;-59
2021/12/27 08:18:25;;;;;;;20.50;6.17;;;;;;;;;;5010075;28;20212;-60
2021/12/27 08:20:53;;;;;;;10.37;5.07;;;;;;;;;;5006034;28;20680;-60
2021/12/27 08:23:20;;;;;;;10.37;6.03;;;;;;;;;;5006139;28;20871;-60
2021/12/27 08:25:47;;;;;;;13.03;5.33;;;;;;;;;;5002066;28;20209;-60
2021/12/27 08:28:14;;;;;;;14.80;4.90;;;;;;;;;;4998383;28;20296;-60
2021/12/27 08:30:41;;;;;;;8.97;4.27;;;;;;;;;;5009688;28;20245;-60
2021/12/27 08:33:08;;;;;;;11.23;4.77;;;;;;;;;;4995557;28;20215;-60
2021/12/27 08:35:36;;;;;;;6.00;3.50;;;;;;;;;;5010143;28;20210;-60
2021/12/27 08:38:05;;;;;;;9.13;4.47;;;;;;;;;;5009451;28;20210;-60
2021/12/27 08:40:32;;;;;;;6.10;2.63;;;;;;;;;;5008559;28;20217;-60
2021/12/27 08:42:59;;;;;;;10.90;3.73;;;;;;;;;;5003410;28;20197;-60
2021/12/27 08:45:26;;;;;;;9.80;3.67;;;;;;;;;;5006320;28;20252;-60
2021/12/27 08:47:53;;;;;;;8.40;3.80;;;;;;;;;;5009772;28;20220;-60
2021/12/27 08:50:20;;;;;;;11.47;5.13;;;;;;;;;;5009694;28;20292;-60
2021/12/27 08:52:50;;;;;;;11.40;4.70;;;;;;;;;;4994556;28;20203;-60
2021/12/27 08:55:19;;;;;;;16.13;9.60;;;;;;;;;;4996570;28;20207;-60
2021/12/27 08:57:46;;;;;;;12.07;7.10;;;;;;;;;;5004683;28;20251;-61
2021/12/27 09:00:15;;;;;;;8.83;4.63;;;;;;;;;;5009538;28;20827;-59
2021/12/27 09:02:43;;;;;;;14.73;5.83;;;;;;;;;;5006268;28;20209;-59
2021/12/27 09:05:10;;;;;;;7.13;4.20;;;;;;;;;;4989861;28;20234;-61
2021/12/27 09:07:37;;;;;;;6.20;3.83;;;;;;;;;;4989579;28;20220;-60
2021/12/27 09:10:05;;;;;;;2.77;2.07;;;;;;;;;;5001643;28;20211;-60
2021/12/27 09:12:33;;;;;;;9.03;4.20;;;;;;;;;;4998094;28;20214;-60
2021/12/27 09:15:00;;;;;;;11.17;4.17;;;;;;;;;;4992284;28;20210;-60
2021/12/27 09:17:27;;;;;;;16.53;6.83;;;;;;;;;;5008093;28;20228;-60
2021/12/27 09:19:54;;;;;;;9.23;3.63;;;;;;;;;;5003681;28;20216;-60
2021/12/27 09:22:21;;;;;;;6.03;4.23;;;;;;;;;;5008615;28;20687;-62
2021/12/27 09:24:50;;;;;;;8.67;2.97;;;;;;;;;;5008158;28;20232;-60
2021/12/27 09:27:17;;;;;;;9.47;3.60;;;;;;;;;;5008688;28;20209;-60
2021/12/27 09:29:46;;;;;;;6.97;4.23;;;;;;;;;;4991660;28;20253;-60
2021/12/27 09:32:13;;;;;;;10.70;3.77;;;;;;;;;;5005693;28;20577;-62
2021/12/27 09:34:41;;;;;;;5.67;3.43;;;;;;;;;;5003179;28;20698;-59
2021/12/27 09:37:08;;;;;;;6.43;4.00;;;;;;;;;;5008234;28;20209;-60
2021/12/27 09:39:35;;;;;;;4.37;3.57;;;;;;;;;;5005655;28;20211;-59
2021/12/27 09:42:02;;;;;;;5.80;3.23;;;;;;;;;;5002703;28;20210;-60
2021/12/27 09:44:30;;;;;;;6.60;3.20;;;;;;;;;;4995567;28;20237;-60
2021/12/27 09:46:58;;;;;;;4.17;3.43;;;;;;;;;;5006969;28;20304;-60
2021/12/27 09:49:29;;;;;;;9.30;3.60;;;;;;;;;;5003667;28;20232;-60
2021/12/27 09:51:57;;;;;;;6.43;3.53;;;;;;;;;;5005730;28;20831;-59
2021/12/27 09:54:25;;;;;;;5.50;3.90;;;;;;;;;;4994978;28;20294;-59
2021/12/27 09:56:52;;;;;;;6.30;3.83;;;;;;;;;;4988947;28;20216;-59
2021/12/27 09:59:20;;;;;;;6.80;3.10;;;;;;;;;;4987462;28;20206;-59
2021/12/27 10:01:47;;;;;;;7.33;3.63;;;;;;;;;;4996753;28;20228;-60
2021/12/27 10:04:15;;;;;;;6.10;4.13;;;;;;;;;;4997319;28;20276;-60
2021/12/27 10:06:43;;;;;;;9.73;3.83;;;;;;;;;;4997665;28;20208;-59
2021/12/27 10:09:10;;;;;;;9.03;4.23;;;;;;;;;;4989880;28;20216;-59
2021/12/27 10:11:38;;;;;;;8.77;3.80;;;;;;;;;;4992694;28;20208;-59
2021/12/27 10:14:06;;;;;;;6.77;4.03;;;;;;;;;;4998049;28;20208;-59
2021/12/27 10:16:35;;;;;;;7.50;4.30;;;;;;;;;;5000575;28;20213;-59
2021/12/27 10:19:03;;;;;;;7.63;4.70;;;;;;;;;;4994719;28;20800;-59
2021/12/27 10:21:33;;;;;;;6.67;3.33;;;;;;;;;;4989201;28;20212;-59
2021/12/27 10:24:07;;;;;;;7.30;2.87;;;;;;;;;;4999454;28;20229;-59
2021/12/27 10:26:36;;;;;;;6.57;2.87;;;;;;;;;;4994557;28;20223;-59
2021/12/27 10:29:10;;;;;;;4.90;2.97;;;;;;;;;;4997251;28;20213;-59
2021/12/27 10:31:50;;;;;;;9.40;3.80;;;;;;;;;;4996869;28;20216;-60
2021/12/27 10:34:17;;;;;;;4.97;3.23;;;;;;;;;;5006447;28;20232;-60
2021/12/27 10:36:58;;;;;;;9.43;4.13;;;;;;;;;;4995296;28;20218;-61
2021/12/27 10:39:29;;;;;;;11.57;5.10;;;;;;;;;;4996354;28;20212;-60
2021/12/27 10:42:06;;;;;;;7.57;3.53;;;;;;;;;;5001564;28;20232;-58
2021/12/27 10:44:35;;;;;;;11.90;4.20;;;;;;;;;;5009107;28;20711;-58
2021/12/27 10:47:02;;;;;;;7.30;4.30;;;;;;;;;;5002092;28;20209;-59
2021/12/27 10:49:45;;;;;;;7.67;3.93;;;;;;;;;;5002105;28;20242;-59
2021/12/27 10:52:13;;;;;;;11.97;4.90;;;;;;;;;;4992412;28;20247;-58
2021/12/27 10:54:40;;;;;;;8.27;3.20;;;;;;;;;;4996822;28;20210;-59
2021/12/27 10:57:07;;;;;;;8.10;4.30;;;;;;;;;;4997442;28;20680;-59
2021/12/27 10:59:35;;;;;;;9.20;3.70;;;;;;;;;;4989375;28;20220;-59
2021/12/27 11:02:09;;;;;;;8.93;4.60;;;;;;;;;;4994621;28;20216;-59
2021/12/27 11:04:37;;;;;;;6.80;3.67;;;;;;;;;;5006094;28;20260;-59
2021/12/27 11:07:04;;;;;;;10.13;4.13;;;;;;;;;;5003796;28;20217;-59
2021/12/27 11:09:33;;;;;;;9.70;4.40;;;;;;;;;;5010592;28;20211;-59
2021/12/27 11:12:01;;;;;;;12.50;6.33;;;;;;;;;;4999367;28;20218;-59
2021/12/27 11:14:28;;;;;;;9.97;4.20;;;;;;;;;;4999832;28;20675;-59
2021/12/27 11:16:55;;;;;;;9.77;5.50;;;;;;;;;;4999029;28;20669;-58
2021/12/27 11:19:22;;;;;;;13.80;5.23;;;;;;;;;;4993595;28;20598;-59
2021/12/27 11:21:50;;;;;;;5.47;4.40;;;;;;;;;;4995494;28;20209;-59
2021/12/27 11:24:18;;;;;;;12.83;5.13;;;;;;;;;;4993316;28;20632;-59
2021/12/27 11:26:47;;;;;;;12.30;5.13;;;;;;;;;;4992158;28;20336;-59
2021/12/27 11:29:15;;;;;;;9.37;4.97;;;;;;;;;;4997759;28;20238;-59
2021/12/27 11:31:42;;;;;;;16.20;5.97;;;;;;;;;;5001435;28;20244;-59
2021/12/27 11:34:12;;;;;;;12.13;5.27;;;;;;;;;;4998508;28;20213;-59
2021/12/27 11:36:40;;;;;;;13.30;5.37;;;;;;;;;;5003995;28;20214;-59
2021/12/27 11:39:19;;;;;;;10.73;5.27;;;;;;;;;;5007543;28;20213;-59
2021/12/27 11:41:57;;;;;;;7.67;4.77;;;;;;;;;;4999019;28;20698;-59
2021/12/27 11:44:33;;;;;;;8.13;4.40;;;;;;;;;;4991265;28;20252;-63
2021/12/27 11:47:00;;;;;;;10.53;4.80;;;;;;;;;;5005427;28;20212;-59
2021/12/27 11:49:51;;;;;;;15.87;4.37;;;;;;;;;;4997102;28;20236;-59
2021/12/27 11:52:23;;;;;;;4.53;2.60;;;;;;;;;;4984731;28;20261;-59
2021/12/27 11:54:52;;;;;;;14.30;6.20;;;;;;;;;;4990782;28;20221;-59
2021/12/27 11:57:37;;;;;;;12.20;4.40;;;;;;;;;;5000397;28;20304;-59
2021/12/27 12:03:19;;;;;;;9.80;5.50;;;;;;;;;;4991098;28;20213;-59
2021/12/27 12:05:47;;;;;;;12.47;6.07;;;;;;;;;;5000792;28;20703;-59
2021/12/27 12:08:16;;;;;;;19.93;5.33;;;;;;;;;;4996587;28;20218;-59
2021/12/27 12:10:50;;;;;;;7.47;4.30;;;;;;;;;;5007176;28;20674;-59
2021/12/27 12:13:21;;;;;;;8.53;5.07;;;;;;;;;;4991962;28;20216;-59
2021/12/27 12:16:08;;;;;;;11.27;5.13;;;;;;;;;;5001588;28;20201;-60
2021/12/27 12:18:37;;;;;;;12.53;5.90;;;;;;;;;;5006926;28;20691;-59
2021/12/27 12:21:05;;;;;;;12.50;5.63;;;;;;;;;;4992968;28;20228;-60
2021/12/27 12:23:36;;;;;;;8.73;5.13;;;;;;;;;;4992822;28;20221;-59
2021/12/27 12:26:05;;;;;;;13.70;6.70;;;;;;;;;;4996475;28;20336;-59
2021/12/27 12:28:32;;;;;;;13.43;5.53;;;;;;;;;;4990919;28;20209;-59
2021/12/27 12:30:59;;;;;;;12.63;6.50;;;;;;;;;;4992159;28;20214;-59
2021/12/27 12:33:28;;;;;;;15.70;6.23;;;;;;;;;;4986802;28;20217;-59
2021/12/27 12:35:58;;;;;;;10.53;6.43;;;;;;;;;;4990948;28;20213;-61
2021/12/27 12:38:26;;;;;;;13.70;7.00;;;;;;;;;;4986235;28;20225;-58
2021/12/27 12:41:01;;;;;;;16.97;6.70;;;;;;;;;;5001397;28;20213;-58
2021/12/27 12:43:35;;;;;;;11.60;6.03;;;;;;;;;;5006389;28;20216;-59
2021/12/27 12:46:11;;;;;;;11.33;5.00;;;;;;;;;;5005015;28;20228;-58
2021/12/27 12:48:40;;;;;;;12.23;6.20;;;;;;;;;;4987364;28;20205;-58
2021/12/27 12:51:07;;;;;;;8.73;5.50;;;;;;;;;;4997202;28;20245;-59
2021/12/27 12:53:34;;;;;;;12.13;6.40;;;;;;;;;;5005815;28;20939;-59
2021/12/27 12:56:02;;;;;;;15.67;6.33;;;;;;;;;;5003967;28;20292;-59
2021/12/27 12:58:33;;;;;;;9.77;5.30;;;;;;;;;;5005872;28;20217;-59
2021/12/27 13:01:02;;;;;;;11.57;5.90;;;;;;;;;;5005443;28;20213;-63
2021/12/27 13:03:30;;;;;;;9.33;6.20;;;;;;;;;;5005407;28;20216;-59
2021/12/27 13:05:59;;;;;;;9.47;5.43;;;;;;;;;;4995320;28;20237;-63
2021/12/27 13:08:26;;;;;;;13.07;5.87;;;;;;;;;;4998095;28;20209;-58
2021/12/27 13:10:56;;;;;;;7.70;5.23;;;;;;;;;;5004324;28;20217;-58
2021/12/27 13:13:23;;;;;;;11.43;5.47;;;;;;;;;;4999645;28;20297;-58
2021/12/27 13:15:51;;;;;;;17.70;7.83;;;;;;;;;;4994696;28;20328;-59
2021/12/27 13:18:19;;;;;;;12.37;6.00;;;;;;;;;;5004335;28;20236;-58
2021/12/27 13:20:47;;;;;;;12.60;7.57;;;;;;;;;;5000026;28;20232;-58
2021/12/27 13:23:16;;;;;;;13.07;5.53;;;;;;;;;;4996560;28;20291;-58
2021/12/27 13:25:45;;;;;;;12.50;6.20;;;;;;;;;;5000098;28;20231;-59
2021/12/27 13:28:14;;;;;;;13.17;5.80;;;;;;;;;;5001593;28;20224;-59
2021/12/27 13:30:45;;;;;;;11.77;5.90;;;;;;;;;;5004380;28;20213;-59
2021/12/27 13:33:12;;;;;;;9.93;5.90;;;;;;;;;;5003698;28;20296;-59
2021/12/27 13:35:40;;;;;;;12.67;7.43;;;;;;;;;;4997895;28;20299;-59
2021/12/27 13:38:15;;;;;;;14.43;5.40;;;;;;;;;;5003295;28;20224;-59
2021/12/27 13:40:44;;;;;;;10.83;6.00;;;;;;;;;;4996050;28;20295;-59
2021/12/27 13:43:11;;;;;;;9.03;5.93;;;;;;;;;;5003300;28;20299;-60
2021/12/27 13:45:41;;;;;;;10.87;6.20;;;;;;;;;;5004437;28;20228;-60
2021/12/27 13:48:09;;;;;;;11.20;5.40;;;;;;;;;;5004882;28;20217;-60
2021/12/27 13:50:36;;;;;;;7.23;4.83;;;;;;;;;;5001395;28;20323;-59
2021/12/27 13:53:10;;;;;;;13.63;6.30;;;;;;;;;;5005090;28;20299;-59
2021/12/27 13:55:38;;;;;;;13.40;6.60;;;;;;;;;;5004866;28;20217;-59
2021/12/27 13:58:12;;;;;;;10.43;5.57;;;;;;;;;;4985707;28;20221;-59
2021/12/27 14:00:40;;;;;;;10.40;5.83;;;;;;;;;;4995469;28;20208;-59
2021/12/27 14:03:07;;;;;;;11.87;5.23;;;;;;;;;;5004958;28;20216;-59
2021/12/27 14:05:34;;;;;;;18.87;6.23;;;;;;;;;;5004873;28;20233;-60
2021/12/27 14:08:12;;;;;;;13.27;5.53;;;;;;;;;;5005010;28;20219;-59
2021/12/27 14:10:40;;;;;;;11.80;5.60;;;;;;;;;;5001812;28;20707;-60
2021/12/27 14:13:07;;;;;;;14.20;5.90;;;;;;;;;;5001624;28;20227;-60
2021/12/27 14:15:37;;;;;;;15.43;6.93;;;;;;;;;;4997112;28;20213;-60
2021/12/27 14:18:09;;;;;;;8.40;5.60;;;;;;;;;;5007443;28;20312;-60
2021/12/27 14:20:36;;;;;;;20.80;7.33;;;;;;;;;;5008028;28;20216;-60
2021/12/27 14:23:07;;;;;;;11.97;5.93;;;;;;;;;;5009074;28;20274;-60
2021/12/27 14:25:34;;;;;;;12.10;6.60;;;;;;;;;;5008269;28;20225;-59
2021/12/27 14:28:03;;;;;;;15.93;7.77;;;;;;;;;;5000286;28;20762;-60
2021/12/27 14:30:32;;;;;;;15.57;6.97;;;;;;;;;;5008458;28;20216;-59
2021/12/27 14:33:07;;;;;;;14.83;5.93;;;;;;;;;;5003224;28;20201;-59
2021/12/27 14:35:35;;;;;;;15.77;6.73;;;;;;;;;;5006890;28;20698;-59
2021/12/27 14:38:05;;;;;;;11.80;5.50;;;;;;;;;;4996251;28;20559;-59
2021/12/27 14:40:33;;;;;;;13.70;6.13;;;;;;;;;;4999905;28;20308;-59
2021/12/27 14:43:00;;;;;;;13.50;6.40;;;;;;;;;;5008433;28;20209;-60
2021/12/27 14:45:29;;;;;;;14.93;6.70;;;;;;;;;;5007519;28;20243;-60
2021/12/27 14:47:57;;;;;;;31.63;16.40;;;;;;;;;;5008426;28;20217;-62
2021/12/27 14:50:24;;;;;;;15.07;6.60;;;;;;;;;;5003297;28;20252;-59
2021/12/27 14:52:52;;;;;;;14.57;5.93;;;;;;;;;;5008524;28;20223;-60